sensor_id;sensor_type;location;lat;lon;timestamp;temperature;humidity
19039;DHT22;9652;49.014;12.052;2024-01-30T00:01:18;3.90;70.50
19039;DHT22;9652;49.014;12.052;2024-01-30T00:03:45;3.80;70.50
19039;DHT22;9652;49.014;12.052;2024-01-30T00:06:13;3.90;70.60
19039;DHT22;9652;49.014;12.052;2024-01-30T00:08:40;3.90;70.60
19039;DHT22;9652;49.014;12.052;2024-01-30T00:11:07;3.80;70.60
19039;DHT22;9652;49.014;12.052;2024-01-30T00:13:34;3.80;70.60
19039;DHT22;9652;49.014;12.052;2024-01-30T00:16:01;3.80;70.60
19039;DHT22;9652;49.014;12.052;2024-01-30T00:18:30;3.80;70.60
19039;DHT22;9652;49.014;12.052;2024-01-30T00:20:58;3.80;70.70
19039;DHT22;9652;49.014;12.052;2024-01-30T00:23:25;3.80;70.60
19039;DHT22;9652;49.014;12.052;2024-01-30T00:25:52;3.80;70.70
19039;DHT22;9652;49.014;12.052;2024-01-30T00:28:19;3.80;70.70
19039;DHT22;9652;49.014;12.052;2024-01-30T00:30:46;3.80;70.80
19039;DHT22;9652;49.014;12.052;2024-01-30T00:33:13;3.80;70.80
19039;DHT22;9652;49.014;12.052;2024-01-30T00:35:42;3.70;70.70
19039;DHT22;9652;49.014;12.052;2024-01-30T00:38:09;3.70;70.80
19039;DHT22;9652;49.014;12.052;2024-01-30T00:40:36;3.70;70.90
19039;DHT22;9652;49.014;12.052;2024-01-30T00:43:03;3.70;70.80
19039;DHT22;9652;49.014;12.052;2024-01-30T00:45:31;3.70;70.80
19039;DHT22;9652;49.014;12.052;2024-01-30T00:47:58;3.70;70.80
19039;DHT22;9652;49.014;12.052;2024-01-30T00:50:25;3.70;70.80
19039;DHT22;9652;49.014;12.052;2024-01-30T00:52:53;3.70;70.80
19039;DHT22;9652;49.014;12.052;2024-01-30T00:55:20;3.60;70.70
19039;DHT22;9652;49.014;12.052;2024-01-30T00:57:48;3.60;70.70
19039;DHT22;9652;49.014;12.052;2024-01-30T01:00:15;3.60;70.70
19039;DHT22;9652;49.014;12.052;2024-01-30T01:02:42;3.60;70.70
19039;DHT22;9652;49.014;12.052;2024-01-30T01:05:10;3.60;70.80
19039;DHT22;9652;49.014;12.052;2024-01-30T01:07:37;3.60;70.80
19039;DHT22;9652;49.014;12.052;2024-01-30T01:10:07;3.60;70.90
19039;DHT22;9652;49.014;12.052;2024-01-30T01:12:34;3.70;71.00
19039;DHT22;9652;49.014;12.052;2024-01-30T01:15:02;3.60;71.00
19039;DHT22;9652;49.014;12.052;2024-01-30T01:17:29;3.60;71.00
19039;DHT22;9652;49.014;12.052;2024-01-30T01:19:56;3.50;70.80
19039;DHT22;9652;49.014;12.052;2024-01-30T01:22:23;3.50;70.90
19039;DHT22;9652;49.014;12.052;2024-01-30T01:24:50;3.50;71.00
19039;DHT22;9652;49.014;12.052;2024-01-30T01:27:19;3.50;71.00
19039;DHT22;9652;49.014;12.052;2024-01-30T01:29:46;3.50;71.00
19039;DHT22;9652;49.014;12.052;2024-01-30T01:32:13;3.50;71.00
19039;DHT22;9652;49.014;12.052;2024-01-30T01:34:41;3.50;71.00
19039;DHT22;9652;49.014;12.052;2024-01-30T01:37:08;3.50;71.00
19039;DHT22;9652;49.014;12.052;2024-01-30T01:39:35;3.40;71.00
19039;DHT22;9652;49.014;12.052;2024-01-30T01:42:03;3.40;71.00
19039;DHT22;9652;49.014;12.052;2024-01-30T01:44:32;3.40;71.10
19039;DHT22;9652;49.014;12.052;2024-01-30T01:46:59;3.40;71.10
19039;DHT22;9652;49.014;12.052;2024-01-30T01:49:27;3.40;71.00
19039;DHT22;9652;49.014;12.052;2024-01-30T01:51:55;3.40;71.10
19039;DHT22;9652;49.014;12.052;2024-01-30T01:54:25;3.40;71.10
19039;DHT22;9652;49.014;12.052;2024-01-30T01:56:54;3.40;71.10
19039;DHT22;9652;49.014;12.052;2024-01-30T01:59:22;3.40;71.10
19039;DHT22;9652;49.014;12.052;2024-01-30T02:01:54;3.40;71.00
19039;DHT22;9652;49.014;12.052;2024-01-30T02:04:22;3.40;71.10
19039;DHT22;9652;49.014;12.052;2024-01-30T02:06:49;3.40;71.00
19039;DHT22;9652;49.014;12.052;2024-01-30T02:09:17;3.40;71.00
19039;DHT22;9652;49.014;12.052;2024-01-30T02:11:44;3.30;70.90
19039;DHT22;9652;49.014;12.052;2024-01-30T02:14:11;3.30;71.00
19039;DHT22;9652;49.014;12.052;2024-01-30T02:16:38;3.30;71.00
19039;DHT22;9652;49.014;12.052;2024-01-30T02:19:07;3.30;71.00
19039;DHT22;9652;49.014;12.052;2024-01-30T02:21:36;3.30;71.10
19039;DHT22;9652;49.014;12.052;2024-01-30T02:24:04;3.30;71.10
19039;DHT22;9652;49.014;12.052;2024-01-30T02:26:32;3.30;71.10
19039;DHT22;9652;49.014;12.052;2024-01-30T02:28:59;3.30;71.10
19039;DHT22;9652;49.014;12.052;2024-01-30T02:31:26;3.20;71.00
19039;DHT22;9652;49.014;12.052;2024-01-30T02:33:53;3.20;71.00
19039;DHT22;9652;49.014;12.052;2024-01-30T02:36:20;3.20;71.00
19039;DHT22;9652;49.014;12.052;2024-01-30T02:38:49;3.20;71.10
19039;DHT22;9652;49.014;12.052;2024-01-30T02:41:16;3.20;71.10
19039;DHT22;9652;49.014;12.052;2024-01-30T02:43:43;3.20;71.10
19039;DHT22;9652;49.014;12.052;2024-01-30T02:46:10;3.20;71.10
19039;DHT22;9652;49.014;12.052;2024-01-30T02:48:37;3.20;71.10
19039;DHT22;9652;49.014;12.052;2024-01-30T02:51:04;3.20;71.20
19039;DHT22;9652;49.014;12.052;2024-01-30T02:53:32;3.20;71.20
19039;DHT22;9652;49.014;12.052;2024-01-30T02:56:01;3.20;71.10
19039;DHT22;9652;49.014;12.052;2024-01-30T02:58:29;3.10;71.20
19039;DHT22;9652;49.014;12.052;2024-01-30T03:00:56;3.10;71.20
19039;DHT22;9652;49.014;12.052;2024-01-30T03:03:23;3.10;71.20
19039;DHT22;9652;49.014;12.052;2024-01-30T03:05:50;3.10;71.30
19039;DHT22;9652;49.014;12.052;2024-01-30T03:08:16;3.10;72.10
19039;DHT22;9652;49.014;12.052;2024-01-30T03:10:43;3.10;71.40
19039;DHT22;9652;49.014;12.052;2024-01-30T03:13:12;3.10;71.30
19039;DHT22;9652;49.014;12.052;2024-01-30T03:15:39;3.10;71.30
19039;DHT22;9652;49.014;12.052;2024-01-30T03:18:06;3.00;71.20
19039;DHT22;9652;49.014;12.052;2024-01-30T03:20:34;3.00;71.20
19039;DHT22;9652;49.014;12.052;2024-01-30T03:23:01;3.00;71.20
19039;DHT22;9652;49.014;12.052;2024-01-30T03:25:28;3.00;71.30
19039;DHT22;9652;49.014;12.052;2024-01-30T03:27:55;3.00;71.40
19039;DHT22;9652;49.014;12.052;2024-01-30T03:30:23;3.00;71.30
19039;DHT22;9652;49.014;12.052;2024-01-30T03:32:50;3.00;71.40
19039;DHT22;9652;49.014;12.052;2024-01-30T03:35:19;3.00;71.40
19039;DHT22;9652;49.014;12.052;2024-01-30T03:37:46;2.90;71.40
19039;DHT22;9652;49.014;12.052;2024-01-30T03:40:13;2.90;71.40
19039;DHT22;9652;49.014;12.052;2024-01-30T03:42:41;2.90;71.40
19039;DHT22;9652;49.014;12.052;2024-01-30T03:45:08;2.90;71.40
19039;DHT22;9652;49.014;12.052;2024-01-30T03:47:37;2.90;71.40
19039;DHT22;9652;49.014;12.052;2024-01-30T03:50:05;2.90;71.40
19039;DHT22;9652;49.014;12.052;2024-01-30T03:52:32;2.90;71.30
19039;DHT22;9652;49.014;12.052;2024-01-30T03:54:59;2.90;71.30
19039;DHT22;9652;49.014;12.052;2024-01-30T03:57:26;2.90;71.40
19039;DHT22;9652;49.014;12.052;2024-01-30T03:59:53;2.80;71.30
19039;DHT22;9652;49.014;12.052;2024-01-30T04:02:20;2.80;71.20
19039;DHT22;9652;49.014;12.052;2024-01-30T04:04:48;2.90;71.40
19039;DHT22;9652;49.014;12.052;2024-01-30T04:07:15;2.80;71.20
19039;DHT22;9652;49.014;12.052;2024-01-30T04:09:42;2.80;71.20
19039;DHT22;9652;49.014;12.052;2024-01-30T04:12:09;2.80;71.20
19039;DHT22;9652;49.014;12.052;2024-01-30T04:14:39;2.80;71.20
19039;DHT22;9652;49.014;12.052;2024-01-30T04:17:06;2.80;71.30
19039;DHT22;9652;49.014;12.052;2024-01-30T04:19:37;2.80;71.20
19039;DHT22;9652;49.014;12.052;2024-01-30T04:22:06;2.80;71.30
19039;DHT22;9652;49.014;12.052;2024-01-30T04:24:33;2.80;71.20
19039;DHT22;9652;49.014;12.052;2024-01-30T04:27:00;2.80;71.20
19039;DHT22;9652;49.014;12.052;2024-01-30T04:29:27;2.80;71.20
19039;DHT22;9652;49.014;12.052;2024-01-30T04:31:54;2.80;71.20
19039;DHT22;9652;49.014;12.052;2024-01-30T04:34:21;2.70;71.20
19039;DHT22;9652;49.014;12.052;2024-01-30T04:36:48;2.70;71.20
19039;DHT22;9652;49.014;12.052;2024-01-30T04:39:16;2.70;71.20
19039;DHT22;9652;49.014;12.052;2024-01-30T04:41:43;2.70;71.20
19039;DHT22;9652;49.014;12.052;2024-01-30T04:44:10;2.70;71.10
19039;DHT22;9652;49.014;12.052;2024-01-30T04:46:37;2.70;71.10
19039;DHT22;9652;49.014;12.052;2024-01-30T04:49:04;2.70;71.10
19039;DHT22;9652;49.014;12.052;2024-01-30T04:51:33;2.70;71.10
19039;DHT22;9652;49.014;12.052;2024-01-30T04:54:00;2.70;71.10
19039;DHT22;9652;49.014;12.052;2024-01-30T04:56:28;2.70;71.10
19039;DHT22;9652;49.014;12.052;2024-01-30T04:58:57;2.60;71.10
19039;DHT22;9652;49.014;12.052;2024-01-30T05:01:24;2.60;71.00
19039;DHT22;9652;49.014;12.052;2024-01-30T05:03:51;2.60;71.10
19039;DHT22;9652;49.014;12.052;2024-01-30T05:06:24;2.60;71.10
19039;DHT22;9652;49.014;12.052;2024-01-30T05:30:42;2.50;71.30
19039;DHT22;9652;49.014;12.052;2024-01-30T05:33:09;2.70;71.50
19039;DHT22;9652;49.014;12.052;2024-01-30T05:35:37;2.50;71.40
19039;DHT22;9652;49.014;12.052;2024-01-30T05:38:05;3.20;71.80
19039;DHT22;9652;49.014;12.052;2024-01-30T05:52:58;2.40;71.20
19039;DHT22;9652;49.014;12.052;2024-01-30T07:08:23;2.40;72.40
19039;DHT22;9652;49.014;12.052;2024-01-30T07:10:56;3.50;73.30
19039;DHT22;9652;49.014;12.052;2024-01-30T07:13:24;3.10;72.90
19039;DHT22;9652;49.014;12.052;2024-01-30T07:15:52;2.40;72.60
19039;DHT22;9652;49.014;12.052;2024-01-30T07:18:25;2.40;72.60
19039;DHT22;9652;49.014;12.052;2024-01-30T07:21:00;2.50;72.80
19039;DHT22;9652;49.014;12.052;2024-01-30T07:23:34;2.40;72.70
19039;DHT22;9652;49.014;12.052;2024-01-30T07:26:06;2.40;72.80
19039;DHT22;9652;49.014;12.052;2024-01-30T07:28:35;2.60;73.00
19039;DHT22;9652;49.014;12.052;2024-01-30T07:31:05;2.60;73.00
19039;DHT22;9652;49.014;12.052;2024-01-30T07:33:32;2.60;72.90
19039;DHT22;9652;49.014;12.052;2024-01-30T07:36:00;2.70;73.00
19039;DHT22;9652;49.014;12.052;2024-01-30T07:46:31;2.80;73.30
19039;DHT22;9652;49.014;12.052;2024-01-30T07:54:50;2.90;73.70
19039;DHT22;9652;49.014;12.052;2024-01-30T07:57:17;3.30;74.00
19039;DHT22;9652;49.014;12.052;2024-01-30T08:18:43;3.70;75.00
19039;DHT22;9652;49.014;12.052;2024-01-30T08:24:31;3.50;75.00
19039;DHT22;9652;49.014;12.052;2024-01-30T08:48:46;4.60;75.00
19039;DHT22;9652;49.014;12.052;2024-01-30T08:51:14;5.30;75.40
19039;DHT22;9652;49.014;12.052;2024-01-30T08:53:41;5.20;75.20
19039;DHT22;9652;49.014;12.052;2024-01-30T08:56:08;5.00;75.00
19039;DHT22;9652;49.014;12.052;2024-01-30T08:58:36;5.10;75.00
19039;DHT22;9652;49.014;12.052;2024-01-30T09:01:03;5.00;74.80
19039;DHT22;9652;49.014;12.052;2024-01-30T09:03:31;5.10;74.80
19039;DHT22;9652;49.014;12.052;2024-01-30T09:06:00;5.20;74.80
19039;DHT22;9652;49.014;12.052;2024-01-30T09:08:27;5.30;74.70
19039;DHT22;9652;49.014;12.052;2024-01-30T09:10:54;6.20;75.30
19039;DHT22;9652;49.014;12.052;2024-01-30T09:13:21;5.40;74.70
19039;DHT22;9652;49.014;12.052;2024-01-30T09:15:48;5.80;74.80
19039;DHT22;9652;49.014;12.052;2024-01-30T09:18:16;5.80;74.70
19039;DHT22;9652;49.014;12.052;2024-01-30T09:20:43;5.70;74.60
19039;DHT22;9652;49.014;12.052;2024-01-30T09:23:12;5.70;74.60
19039;DHT22;9652;49.014;12.052;2024-01-30T09:25:39;5.80;74.40
19039;DHT22;9652;49.014;12.052;2024-01-30T09:28:06;5.90;74.40
19039;DHT22;9652;49.014;12.052;2024-01-30T09:30:33;6.30;74.40
19039;DHT22;9652;49.014;12.052;2024-01-30T10:10:38;7.20;73.30
19039;DHT22;9652;49.014;12.052;2024-01-30T10:31:46;7.80;72.40
19039;DHT22;9652;49.014;12.052;2024-01-30T10:34:24;7.80;72.40
19039;DHT22;9652;49.014;12.052;2024-01-30T10:36:59;7.90;72.40
19039;DHT22;9652;49.014;12.052;2024-01-30T10:39:32;8.10;72.40
19039;DHT22;9652;49.014;12.052;2024-01-30T10:42:06;8.00;72.30
19039;DHT22;9652;49.014;12.052;2024-01-30T10:44:44;8.10;72.20
19039;DHT22;9652;49.014;12.052;2024-01-30T10:47:26;8.90;72.30
19039;DHT22;9652;49.014;12.052;2024-01-30T10:49:54;8.40;71.80
19039;DHT22;9652;49.014;12.052;2024-01-30T11:20:29;8.70;70.80
19039;DHT22;9652;49.014;12.052;2024-01-30T11:29:35;8.90;70.40
19039;DHT22;9652;49.014;12.052;2024-01-30T11:32:03;8.90;70.70
19039;DHT22;9652;49.014;12.052;2024-01-30T11:34:32;9.00;70.70
19039;DHT22;9652;49.014;12.052;2024-01-30T11:37:06;9.00;70.50
19039;DHT22;9652;49.014;12.052;2024-01-30T11:39:39;8.90;70.10
19039;DHT22;9652;49.014;12.052;2024-01-30T11:42:07;9.10;70.50
19039;DHT22;9652;49.014;12.052;2024-01-30T11:44:37;9.10;70.40
19039;DHT22;9652;49.014;12.052;2024-01-30T11:47:05;9.10;70.20
19039;DHT22;9652;49.014;12.052;2024-01-30T11:49:33;9.20;70.30
19039;DHT22;9652;49.014;12.052;2024-01-30T11:52:02;9.20;70.20
19039;DHT22;9652;49.014;12.052;2024-01-30T11:54:30;9.30;70.20
19039;DHT22;9652;49.014;12.052;2024-01-30T11:56:57;9.30;70.30
19039;DHT22;9652;49.014;12.052;2024-01-30T11:59:24;9.40;70.40
19039;DHT22;9652;49.014;12.052;2024-01-30T12:01:54;9.40;70.50
19039;DHT22;9652;49.014;12.052;2024-01-30T12:04:22;9.50;70.30
19039;DHT22;9652;49.014;12.052;2024-01-30T12:06:51;9.60;70.20
19039;DHT22;9652;49.014;12.052;2024-01-30T12:09:18;9.80;70.10
19039;DHT22;9652;49.014;12.052;2024-01-30T12:11:52;9.70;70.00
19039;DHT22;9652;49.014;12.052;2024-01-30T12:14:19;9.80;69.40
19039;DHT22;9652;49.014;12.052;2024-01-30T12:16:50;10.10;69.80
19039;DHT22;9652;49.014;12.052;2024-01-30T12:22:10;9.90;68.90
19039;DHT22;9652;49.014;12.052;2024-01-30T12:24:38;10.00;69.10
19039;DHT22;9652;49.014;12.052;2024-01-30T12:27:05;10.00;69.10
19039;DHT22;9652;49.014;12.052;2024-01-30T12:29:32;10.00;69.10
19039;DHT22;9652;49.014;12.052;2024-01-30T12:32:00;10.10;68.90
19039;DHT22;9652;49.014;12.052;2024-01-30T12:34:31;10.10;68.80
19039;DHT22;9652;49.014;12.052;2024-01-30T12:36:59;10.20;68.50
19039;DHT22;9652;49.014;12.052;2024-01-30T12:39:26;10.20;68.60
19039;DHT22;9652;49.014;12.052;2024-01-30T12:41:53;10.20;68.50
19039;DHT22;9652;49.014;12.052;2024-01-30T12:44:21;10.20;68.40
19039;DHT22;9652;49.014;12.052;2024-01-30T12:46:48;10.30;68.40
19039;DHT22;9652;49.014;12.052;2024-01-30T12:49:15;10.30;68.30
19039;DHT22;9652;49.014;12.052;2024-01-30T12:51:44;10.40;68.40
19039;DHT22;9652;49.014;12.052;2024-01-30T12:54:12;10.60;68.30
19039;DHT22;9652;49.014;12.052;2024-01-30T12:56:40;10.50;68.20
19039;DHT22;9652;49.014;12.052;2024-01-30T12:59:07;10.50;68.30
19039;DHT22;9652;49.014;12.052;2024-01-30T13:01:35;10.60;68.30
19039;DHT22;9652;49.014;12.052;2024-01-30T13:04:02;10.80;68.50
19039;DHT22;9652;49.014;12.052;2024-01-30T13:06:30;10.70;68.30
19039;DHT22;9652;49.014;12.052;2024-01-30T13:08:59;10.70;68.20
19039;DHT22;9652;49.014;12.052;2024-01-30T13:11:26;10.80;68.00
19039;DHT22;9652;49.014;12.052;2024-01-30T13:13:54;10.80;67.80
19039;DHT22;9652;49.014;12.052;2024-01-30T13:16:21;10.90;67.70
19039;DHT22;9652;49.014;12.052;2024-01-30T13:18:49;10.90;67.60
19039;DHT22;9652;49.014;12.052;2024-01-30T13:21:16;11.00;67.50
19039;DHT22;9652;49.014;12.052;2024-01-30T13:23:43;11.00;67.40
19039;DHT22;9652;49.014;12.052;2024-01-30T13:26:11;10.90;67.20
19039;DHT22;9652;49.014;12.052;2024-01-30T13:28:38;11.00;67.20
19039;DHT22;9652;49.014;12.052;2024-01-30T13:31:05;11.10;67.30
19039;DHT22;9652;49.014;12.052;2024-01-30T13:33:33;11.00;67.10
19039;DHT22;9652;49.014;12.052;2024-01-30T13:36:00;11.10;67.00
19039;DHT22;9652;49.014;12.052;2024-01-30T13:38:28;10.90;66.90
19039;DHT22;9652;49.014;12.052;2024-01-30T13:40:55;11.10;66.80
19039;DHT22;9652;49.014;12.052;2024-01-30T13:43:23;10.80;66.50
19039;DHT22;9652;49.014;12.052;2024-01-30T13:45:50;11.20;66.50
19039;DHT22;9652;49.014;12.052;2024-01-30T13:48:18;11.20;66.50
19039;DHT22;9652;49.014;12.052;2024-01-30T13:50:45;11.20;66.50
19039;DHT22;9652;49.014;12.052;2024-01-30T13:53:13;11.20;66.50
19039;DHT22;9652;49.014;12.052;2024-01-30T13:55:40;11.20;66.50
19039;DHT22;9652;49.014;12.052;2024-01-30T13:58:07;11.20;66.40
19039;DHT22;9652;49.014;12.052;2024-01-30T14:00:36;11.20;66.30
19039;DHT22;9652;49.014;12.052;2024-01-30T14:03:04;11.20;67.00
19039;DHT22;9652;49.014;12.052;2024-01-30T14:05:31;11.20;66.30
19039;DHT22;9652;49.014;12.052;2024-01-30T14:07:59;11.20;66.30
19039;DHT22;9652;49.014;12.052;2024-01-30T14:10:27;11.20;66.10
19039;DHT22;9652;49.014;12.052;2024-01-30T14:12:54;11.30;66.20
19039;DHT22;9652;49.014;12.052;2024-01-30T14:15:22;11.30;66.10
19039;DHT22;9652;49.014;12.052;2024-01-30T14:17:50;11.30;65.90
19039;DHT22;9652;49.014;12.052;2024-01-30T14:20:17;11.30;65.70
19039;DHT22;9652;49.014;12.052;2024-01-30T14:22:44;11.30;65.70
19039;DHT22;9652;49.014;12.052;2024-01-30T14:25:12;11.30;65.60
19039;DHT22;9652;49.014;12.052;2024-01-30T14:27:39;11.20;65.30
19039;DHT22;9652;49.014;12.052;2024-01-30T14:30:07;11.20;65.10
19039;DHT22;9652;49.014;12.052;2024-01-30T14:32:37;11.20;65.10
19039;DHT22;9652;49.014;12.052;2024-01-30T14:35:10;11.10;65.00
19039;DHT22;9652;49.014;12.052;2024-01-30T14:37:37;11.00;64.80
19039;DHT22;9652;49.014;12.052;2024-01-30T14:40:06;11.00;65.00
19039;DHT22;9652;49.014;12.052;2024-01-30T14:42:34;10.90;65.00
19039;DHT22;9652;49.014;12.052;2024-01-30T14:45:01;10.70;65.00
19039;DHT22;9652;49.014;12.052;2024-01-30T14:47:29;10.80;65.10
19039;DHT22;9652;49.014;12.052;2024-01-30T14:49:56;10.70;65.20
19039;DHT22;9652;49.014;12.052;2024-01-30T14:52:25;10.70;65.30
19039;DHT22;9652;49.014;12.052;2024-01-30T14:54:52;10.60;65.30
19039;DHT22;9652;49.014;12.052;2024-01-30T14:57:20;10.60;65.60
19039;DHT22;9652;49.014;12.052;2024-01-30T14:59:47;10.70;65.80
19039;DHT22;9652;49.014;12.052;2024-01-30T15:02:15;10.50;65.70
19039;DHT22;9652;49.014;12.052;2024-01-30T15:04:42;10.50;65.80
19039;DHT22;9652;49.014;12.052;2024-01-30T15:07:09;10.70;66.00
19039;DHT22;9652;49.014;12.052;2024-01-30T15:09:38;10.40;65.70
19039;DHT22;9652;49.014;12.052;2024-01-30T15:12:05;10.50;65.70
19039;DHT22;9652;49.014;12.052;2024-01-30T15:14:33;10.40;65.70
19039;DHT22;9652;49.014;12.052;2024-01-30T15:17:00;10.40;65.70
19039;DHT22;9652;49.014;12.052;2024-01-30T15:19:27;10.40;65.70
19039;DHT22;9652;49.014;12.052;2024-01-30T15:21:54;10.30;65.50
19039;DHT22;9652;49.014;12.052;2024-01-30T15:24:21;10.30;65.50
19039;DHT22;9652;49.014;12.052;2024-01-30T15:26:51;10.30;65.60
19039;DHT22;9652;49.014;12.052;2024-01-30T15:29:18;10.20;65.50
19039;DHT22;9652;49.014;12.052;2024-01-30T15:31:48;10.20;65.70
19039;DHT22;9652;49.014;12.052;2024-01-30T15:34:15;10.20;65.70
19039;DHT22;9652;49.014;12.052;2024-01-30T15:36:42;10.10;65.70
19039;DHT22;9652;49.014;12.052;2024-01-30T15:39:10;10.10;65.80
19039;DHT22;9652;49.014;12.052;2024-01-30T15:41:37;10.10;65.90
19039;DHT22;9652;49.014;12.052;2024-01-30T15:44:06;10.00;65.90
19039;DHT22;9652;49.014;12.052;2024-01-30T15:46:33;10.20;66.00
19039;DHT22;9652;49.014;12.052;2024-01-30T15:49:00;10.00;65.90
19039;DHT22;9652;49.014;12.052;2024-01-30T15:51:29;9.90;65.90
19039;DHT22;9652;49.014;12.052;2024-01-30T15:53:57;9.90;65.90
19039;DHT22;9652;49.014;12.052;2024-01-30T15:56:24;9.80;65.90
19039;DHT22;9652;49.014;12.052;2024-01-30T15:58:51;10.00;65.90
19039;DHT22;9652;49.014;12.052;2024-01-30T16:01:19;9.80;65.90
19039;DHT22;9652;49.014;12.052;2024-01-30T16:03:47;9.70;65.80
19039;DHT22;9652;49.014;12.052;2024-01-30T16:06:14;10.00;65.90
19039;DHT22;9652;49.014;12.052;2024-01-30T16:08:42;9.60;65.70
19039;DHT22;9652;49.014;12.052;2024-01-30T16:11:09;9.50;65.70
19039;DHT22;9652;49.014;12.052;2024-01-30T16:13:36;9.50;65.80
19039;DHT22;9652;49.014;12.052;2024-01-30T16:16:04;9.40;65.80
19039;DHT22;9652;49.014;12.052;2024-01-30T16:18:35;9.40;65.80
